Time;durP1;ratioP1;P1;durP2;ratioP2;P2;SDS_P1;SDS_P2;PMS_P1;PMS_P2;Temp;Humidity;BMP_temperature;BMP_pressure;BME280_temperature;BME280_humidity;BME280_pressure;Samples;Min_cycle;Max_cycle;Signal;HPM_P1;HPM_P2
2022/10/03 00:02:32;;;;;;;0.00;0.00;;;;;;;7.46;100.00;102486.41;5041082;28;20076;-78
2022/10/03 00:05:23;;;;;;;0.10;0.10;;;;;;;7.36;100.00;102471.66;5042323;28;20063;-78
2022/10/03 00:08:03;;;;;;;0.10;0.10;;;;;;;7.36;100.00;102468.97;5040631;28;20025;-78
2022/10/03 00:11:01;;;;;;;0.10;0.10;;;;;;;7.44;100.00;102466.91;5043380;28;20052;-78
2022/10/03 00:13:42;;;;;;;0.10;0.10;;;;;;;7.70;100.00;102498.88;5058538;28;20036;-78
2022/10/03 00:16:22;;;;;;;0.10;0.10;;;;;;;7.83;100.00;102502.81;5044025;28;20605;-77
2022/10/03 00:19:12;;;;;;;0.17;0.17;;;;;;;7.98;100.00;102500.44;5031324;28;20033;-79
2022/10/03 00:22:01;;;;;;;0.10;0.10;;;;;;;7.87;100.00;102461.66;5043859;28;20040;-79
2022/10/03 00:24:45;;;;;;;0.10;0.10;;;;;;;8.16;100.00;102498.84;5050694;28;20029;-79
2022/10/03 00:27:19;;;;;;;0.10;0.10;;;;;;;7.98;100.00;102463.91;5044087;28;21476;-78
2022/10/03 00:30:03;;;;;;;0.10;0.10;;;;;;;8.14;100.00;102488.22;5039890;28;20033;-78
2022/10/03 00:32:47;;;;;;;0.10;0.10;;;;;;;8.23;100.00;102509.22;5045487;28;20084;-79
2022/10/03 00:35:34;;;;;;;0.10;0.10;;;;;;;8.24;100.00;102504.75;5040078;28;20028;-78
2022/10/03 00:38:30;;;;;;;0.10;0.10;;;;;;;8.23;100.00;102509.22;5039683;28;20063;-79
2022/10/03 00:41:25;;;;;;;0.10;0.10;;;;;;;8.14;100.00;102522.09;5030046;28;20036;-78
2022/10/03 00:43:56;;;;;;;0.10;0.10;;;;;;;8.08;100.00;102524.09;5046091;28;20094;-78
2022/10/03 00:46:47;;;;;;;0.10;0.10;;;;;;;7.92;100.00;102504.25;5044300;28;20029;-79
2022/10/03 00:49:46;;;;;;;0.10;0.10;;;;;;;8.05;100.00;102524.25;5047328;28;20028;-78
2022/10/03 00:52:42;;;;;;;0.10;0.10;;;;;;;8.07;100.00;102519.72;5026381;28;20680;-79
2022/10/03 00:55:23;;;;;;;0.10;0.10;;;;;;;8.04;100.00;102532.31;5036631;28;20099;-79
2022/10/03 00:58:21;;;;;;;0.40;0.40;;;;;;;7.94;100.00;102531.81;5044198;28;20044;-79
2022/10/03 01:00:50;;;;;;;0.10;0.10;;;;;;;7.73;100.00;102542.44;5042886;28;20494;-78
2022/10/03 01:03:37;;;;;;;0.10;0.10;;;;;;;7.65;100.00;102537.38;5039134;28;20115;-79
2022/10/03 01:06:15;;;;;;;0.10;0.10;;;;;;;7.57;100.00;102523.44;5042469;28;20036;-78
2022/10/03 01:09:05;;;;;;;0.10;0.10;;;;;;;7.64;100.00;102535.63;5047158;28;20384;-78
2022/10/03 01:11:42;;;;;;;0.10;0.10;;;;;;;7.72;100.00;102538.00;5038459;28;20033;-78
2022/10/03 01:14:22;;;;;;;0.20;0.20;;;;;;;7.68;100.00;102520.34;5040263;28;20021;-78
2022/10/03 01:17:06;;;;;;;0.10;0.10;;;;;;;7.75;100.00;102537.00;5043648;28;20029;-78
2022/10/03 01:19:54;;;;;;;0.10;0.10;;;;;;;7.58;100.00;102543.88;5040625;28;20026;-78
2022/10/03 01:22:41;;;;;;;0.10;0.10;;;;;;;7.56;100.00;102547.53;5037374;28;20044;-78
2022/10/03 01:25:18;;;;;;;0.10;0.10;;;;;;;7.56;100.00;102551.09;5031063;28;20025;-78
2022/10/03 01:30:41;;;;;;;0.10;0.10;;;;;;;7.74;100.00;102556.66;5038249;28;20079;-78
2022/10/03 01:33:09;;;;;;;0.10;0.10;;;;;;;7.79;100.00;102555.56;5037444;28;20940;-79
2022/10/03 01:35:55;;;;;;;0.10;0.10;;;;;;;7.85;100.00;102564.25;5025000;28;20037;-79
2022/10/03 01:38:44;;;;;;;0.10;0.10;;;;;;;7.94;100.00;102563.91;5027784;28;20095;-79
2022/10/03 01:41:42;;;;;;;0.10;0.10;;;;;;;7.99;100.00;102571.75;5017224;28;20873;-79
2022/10/03 01:44:07;;;;;;;0.10;0.10;;;;;;;7.93;100.00;102562.16;5040860;28;20036;-80
2022/10/03 01:46:42;;;;;;;0.10;0.10;;;;;;;7.75;100.00;102553.94;5037511;28;20025;-79
2022/10/03 01:49:16;;;;;;;0.10;0.10;;;;;;;7.71;100.00;102552.31;5036948;28;20811;-79
2022/10/03 01:51:54;;;;;;;;;;;;;;;7.71;100.00;102559.44;5037485;28;20039;-79
2022/10/03 01:54:37;;;;;;;0.17;0.17;;;;;;;7.54;100.00;102544.06;5040874;28;19916;-79
2022/10/03 01:57:11;;;;;;;0.08;0.08;;;;;;;7.71;100.00;102557.66;5042601;28;20040;-79
2022/10/03 01:59:54;;;;;;;0.10;0.10;;;;;;;7.70;100.00;102557.69;5035696;28;20037;-79
2022/10/03 02:03:11;;;;;;;0.20;0.20;;;;;;;7.81;100.00;102553.66;5027927;28;20397;-79
2022/10/03 02:06:01;;;;;;;0.10;0.10;;;;;;;7.81;100.00;102559.03;5002626;28;20041;-78
2022/10/03 02:08:49;;;;;;;0.10;0.10;;;;;;;7.78;100.00;102559.16;5000512;28;20045;-79
2022/10/03 02:11:40;;;;;;;0.10;0.10;;;;;;;7.75;100.00;102561.06;5044950;28;20048;-79
2022/10/03 02:14:21;;;;;;;0.52;0.52;;;;;;;7.52;100.00;102537.91;5023298;28;20041;-79
2022/10/03 02:17:08;;;;;;;0.10;0.10;;;;;;;7.69;100.00;102564.84;5043932;28;20017;-79
2022/10/03 02:20:15;;;;;;;0.10;0.10;;;;;;;7.72;100.00;102562.06;5040438;28;20048;-79
2022/10/03 02:22:46;;;;;;;0.10;0.10;;;;;;;7.76;100.00;102554.78;5036760;28;20060;-79
2022/10/03 02:25:38;;;;;;;0.10;0.10;;;;;;;7.81;100.00;102560.84;5025733;28;20066;-79
2022/10/03 02:28:56;;;;;;;0.10;0.10;;;;;;;7.78;100.00;102561.84;5032136;28;20029;-78
2022/10/03 02:31:42;;;;;;;0.10;0.10;;;;;;;7.64;100.00;102566.81;5052558;28;20079;-78
2022/10/03 02:34:42;;;;;;;0.10;0.10;;;;;;;7.61;100.00;102573.19;5038138;28;20063;-79
2022/10/03 02:37:26;;;;;;;0.10;0.10;;;;;;;7.66;100.00;102581.00;5031274;28;20108;-79
2022/10/03 02:40:16;;;;;;;0.10;0.10;;;;;;;7.74;100.00;102570.91;5040985;28;20103;-79
2022/10/03 02:43:08;;;;;;;0.10;0.10;;;;;;;7.77;100.00;102577.94;5037748;28;20301;-79
2022/10/03 02:45:45;;;;;;;0.10;0.10;;;;;;;7.66;100.00;102564.97;5042598;28;20371;-79
2022/10/03 02:48:26;;;;;;;0.20;0.20;;;;;;;7.70;100.00;102577.28;5039141;28;20031;-79
2022/10/03 02:51:10;;;;;;;0.10;0.10;;;;;;;7.65;100.00;102579.28;5038387;28;20017;-79
2022/10/03 02:54:03;;;;;;;0.10;0.10;;;;;;;7.43;100.00;102542.66;5039828;28;20467;-79
2022/10/03 02:57:02;;;;;;;0.15;0.15;;;;;;;7.54;100.00;102563.63;5035365;28;20048;-79
2022/10/03 02:59:37;;;;;;;0.20;0.20;;;;;;;7.68;100.00;102572.94;5038854;28;20531;-79
2022/10/03 03:02:06;;;;;;;0.10;0.10;;;;;;;7.70;100.00;102574.63;5038492;28;20040;-79
2022/10/03 03:04:38;;;;;;;0.10;0.10;;;;;;;7.72;100.00;102574.56;5040302;28;20041;-79
2022/10/03 03:07:25;;;;;;;0.10;0.10;;;;;;;7.53;100.00;102545.00;5040985;28;20471;-79
2022/10/03 03:10:36;;;;;;;0.22;0.10;;;;;;;7.53;100.00;102536.97;5035825;28;20056;-79
2022/10/03 03:13:29;;;;;;;0.10;0.10;;;;;;;7.74;100.00;102570.91;5040441;28;20112;-79
2022/10/03 03:16:13;;;;;;;0.10;0.10;;;;;;;7.73;100.00;102569.16;5040182;28;20033;-79
2022/10/03 03:18:45;;;;;;;0.10;0.10;;;;;;;7.68;100.00;102562.25;5043151;28;20081;-79
2022/10/03 03:21:31;;;;;;;0.10;0.10;;;;;;;7.58;100.00;102575.97;5039674;28;20037;-78
2022/10/03 03:24:37;;;;;;;0.20;0.20;;;;;;;7.42;100.00;102575.66;5042901;28;20032;-79
2022/10/03 03:27:33;;;;;;;0.10;0.10;;;;;;;7.30;100.00;102557.38;5038624;28;20025;-75
2022/10/03 03:30:10;;;;;;;0.10;0.10;;;;;;;7.31;100.00;102572.50;5040516;28;20474;-75
2022/10/03 03:32:58;;;;;;;0.10;0.10;;;;;;;7.19;100.00;102560.44;5040020;28;20037;-75
2022/10/03 03:35:33;;;;;;;0.10;0.10;;;;;;;7.31;100.00;102586.72;5044533;28;20029;-75
2022/10/03 03:38:08;;;;;;;0.10;0.10;;;;;;;7.18;100.00;102580.06;5043142;28;20078;-74
2022/10/03 03:41:00;;;;;;;0.10;0.10;;;;;;;7.32;100.00;102590.25;5042636;28;20120;-75
2022/10/03 03:43:47;;;;;;;0.10;0.10;;;;;;;7.39;100.00;102581.09;5037863;28;20390;-75
2022/10/03 03:46:19;;;;;;;0.10;0.10;;;;;;;7.41;100.00;102586.41;5042083;28;20043;-75
2022/10/03 03:49:00;;;;;;;0.10;0.10;;;;;;;7.12;100.00;102545.59;5041369;28;20029;-76
2022/10/03 03:51:28;;;;;;;0.20;0.20;;;;;;;7.31;100.00;102586.72;5037957;28;20025;-76
2022/10/03 03:54:12;;;;;;;0.10;0.10;;;;;;;6.99;100.00;102542.47;5038981;28;20554;-76
2022/10/03 03:56:48;;;;;;;0.10;0.10;;;;;;;7.09;100.00;102573.25;5040924;28;20040;-75
2022/10/03 03:59:52;;;;;;;0.10;0.10;;;;;;;7.26;100.00;102593.19;5025888;28;20047;-75
2022/10/03 04:02:43;;;;;;;0.10;0.10;;;;;;;7.27;100.00;102593.13;5052447;28;20041;-75
2022/10/03 04:05:37;;;;;;;0.05;0.05;;;;;;;7.13;100.00;102582.91;5037178;28;20079;-75
2022/10/03 04:08:20;;;;;;;0.10;0.10;;;;;;;7.20;100.00;102581.78;5045433;28;20463;-75
2022/10/03 04:10:55;;;;;;;0.10;0.10;;;;;;;7.24;100.00;102590.53;5046493;28;20094;-75
2022/10/03 04:13:23;;;;;;;0.10;0.10;;;;;;;7.29;100.00;102591.25;5044485;28;20030;-75
2022/10/03 04:16:02;;;;;;;0.10;0.10;;;;;;;7.10;100.00;102544.75;5046574;28;20032;-75
2022/10/03 04:18:59;;;;;;;0.10;0.10;;;;;;;7.27;100.00;102587.75;5049019;28;20031;-75
2022/10/03 04:21:40;;;;;;;0.10;0.10;;;;;;;7.29;100.00;102583.25;5043906;28;20017;-75
2022/10/03 04:24:21;;;;;;;0.20;0.20;;;;;;;7.25;100.00;102583.41;5035525;28;20902;-75
2022/10/03 04:27:00;;;;;;;0.10;0.10;;;;;;;7.10;100.00;102574.16;5044159;28;20394;-75
2022/10/03 04:29:41;;;;;;;0.50;0.50;;;;;;;6.96;100.00;102575.50;5043796;28;20096;-75
2022/10/03 04:32:27;;;;;;;0.40;0.40;;;;;;;6.99;100.00;102588.75;5035783;28;20025;-75
2022/10/03 04:35:20;;;;;;;0.20;0.20;;;;;;;6.86;100.00;102600.78;5042563;28;20124;-75
2022/10/03 04:38:14;;;;;;;0.10;0.10;;;;;;;6.88;100.00;102602.47;5041457;28;20031;-75
2022/10/03 04:40:49;;;;;;;0.20;0.20;;;;;;;6.67;100.00;102557.81;5038078;28;20395;-75
2022/10/03 04:43:23;;;;;;;0.10;0.10;;;;;;;6.82;100.00;102575.97;5041708;28;20733;-75
2022/10/03 04:46:15;;;;;;;0.10;0.10;;;;;;;7.04;100.00;102602.81;5043580;28;20029;-75
2022/10/03 04:48:45;;;;;;;0.20;0.20;;;;;;;7.12;100.00;102599.88;5040778;28;22048;-76
2022/10/03 04:51:19;;;;;;;0.10;0.10;;;;;;;7.16;100.00;102609.53;5041848;28;20021;-75
2022/10/03 04:53:49;;;;;;;0.10;0.10;;;;;;;7.14;100.00;102600.69;5040742;28;20039;-76
2022/10/03 04:56:32;;;;;;;0.10;0.10;;;;;;;7.07;100.00;102599.16;5041591;28;20066;-76
2022/10/03 04:59:10;;;;;;;0.10;0.10;;;;;;;7.08;100.00;102616.06;5038726;28;20025;-74
2022/10/03 05:02:01;;;;;;;0.10;0.10;;;;;;;6.89;100.00;102595.31;5041380;28;20036;-76
2022/10/03 05:04:35;;;;;;;0.10;0.10;;;;;;;7.06;100.00;102608.09;5038764;28;20394;-75
2022/10/03 05:07:13;;;;;;;0.10;0.10;;;;;;;7.09;100.00;102609.78;5059191;28;20086;-75
2022/10/03 05:09:49;;;;;;;0.10;0.10;;;;;;;7.03;100.00;102600.19;5038086;28;20079;-75
2022/10/03 05:12:34;;;;;;;0.10;0.10;;;;;;;7.14;100.00;102616.72;5039156;28;20037;-75
2022/10/03 05:15:13;;;;;;;0.10;0.10;;;;;;;7.09;100.00;102620.47;5040420;28;20033;-75
2022/10/03 05:18:00;;;;;;;0.10;0.10;;;;;;;7.00;100.00;102624.34;5038717;28;20040;-76
2022/10/03 05:20:47;;;;;;;0.10;0.10;;;;;;;7.00;100.00;102632.34;5035522;28;20036;-75
2022/10/03 05:23:40;;;;;;;0.10;0.10;;;;;;;6.98;100.00;102623.53;5043065;28;20082;-75
2022/10/03 05:26:57;;;;;;;0.10;0.10;;;;;;;6.86;100.00;102617.66;5037787;28;20029;-76
2022/10/03 05:30:03;;;;;;;0.10;0.10;;;;;;;6.74;100.00;102631.44;5013403;28;20068;-75
2022/10/03 05:32:52;;;;;;;0.10;0.10;;;;;;;6.79;100.00;102629.47;5030170;28;20040;-75
2022/10/03 05:35:30;;;;;;;0.13;0.13;;;;;;;6.64;100.00;102616.63;5039024;28;20040;-75
2022/10/03 05:38:23;;;;;;;0.60;0.60;;;;;;;6.62;100.00;102631.81;5028058;28;20156;-74
2022/10/03 05:41:06;;;;;;;0.60;0.60;;;;;;;6.15;100.00;102598.59;5045704;28;20060;-74
2022/10/03 05:43:57;;;;;;;0.50;0.50;;;;;;;6.24;100.00;102642.78;5026384;28;20037;-75
2022/10/03 05:46:45;;;;;;;0.60;0.60;;;;;;;6.24;100.00;102640.13;5043744;28;20035;-75
2022/10/03 05:49:15;;;;;;;0.40;0.40;;;;;;;6.35;100.00;102640.66;5035989;28;20029;-75
2022/10/03 05:51:53;;;;;;;0.20;0.20;;;;;;;6.26;100.00;102627.59;5038403;28;20084;-75
2022/10/03 05:54:39;;;;;;;0.60;0.60;;;;;;;6.27;100.00;102646.22;5061398;28;20025;-76
2022/10/03 05:57:26;;;;;;;0.43;0.43;;;;;;;6.33;100.00;102654.97;5042236;28;20036;-75
2022/10/03 06:00:07;;;;;;;0.30;0.30;;;;;;;6.32;100.00;102645.22;5036208;28;20481;-75
2022/10/03 06:02:52;;;;;;;0.10;0.10;;;;;;;6.31;100.00;102660.34;5035238;28;20033;-76
2022/10/03 06:05:41;;;;;;;0.32;0.32;;;;;;;6.35;100.00;102655.78;5035936;28;20017;-75
2022/10/03 06:08:24;;;;;;;0.22;0.22;;;;;;;6.36;100.00;102657.53;5056156;28;20020;-80
2022/10/03 06:10:55;;;;;;;0.10;0.10;;;;;;;6.37;100.00;102653.94;5059020;28;20474;-76
2022/10/03 06:13:42;;;;;;;0.10;0.10;;;;;;;6.41;100.00;102656.47;5035239;28;20025;-76
2022/10/03 06:16:45;;;;;;;0.20;0.20;;;;;;;6.43;100.00;102659.09;5042798;28;20024;-76
2022/10/03 06:19:20;;;;;;;0.10;0.10;;;;;;;6.39;100.00;102666.31;5051516;28;20066;-77
2022/10/03 06:22:24;;;;;;;0.10;0.10;;;;;;;6.33;100.00;102650.50;5036234;28;20044;-75
2022/10/03 06:25:08;;;;;;;0.10;0.10;;;;;;;6.56;100.00;102659.59;5036157;28;20052;-76
2022/10/03 06:28:06;;;;;;;0.10;0.10;;;;;;;6.72;100.00;102646.63;5039022;28;20114;-76
2022/10/03 06:30:57;;;;;;;0.20;0.20;;;;;;;6.84;100.00;102662.22;5040185;28;20041;-75
2022/10/03 06:33:51;;;;;;;0.10;0.10;;;;;;;6.93;100.00;102661.03;5031433;28;20045;-76
2022/10/03 06:36:41;;;;;;;0.10;0.10;;;;;;;6.99;100.00;102665.34;5022693;28;20446;-75
2022/10/03 06:39:54;;;;;;;0.10;0.10;;;;;;;7.09;100.00;102653.41;5036800;28;20040;-75
2022/10/03 06:42:44;;;;;;;0.10;0.10;;;;;;;7.19;100.00;102656.63;5031438;28;20056;-75
2022/10/03 06:45:21;;;;;;;0.10;0.10;;;;;;;7.28;100.00;102664.31;5055078;28;20047;-75
2022/10/03 06:47:58;;;;;;;0.10;0.10;;;;;;;7.28;100.00;102658.97;5042648;28;20720;-76
2022/10/03 06:50:54;;;;;;;0.10;0.10;;;;;;;7.40;100.00;102665.69;5038379;28;20021;-76
2022/10/03 06:53:40;;;;;;;0.10;0.10;;;;;;;7.46;100.00;102667.28;5035458;28;20028;-77
2022/10/03 06:56:47;;;;;;;0.20;0.20;;;;;;;7.49;100.00;102654.69;5022829;28;20517;-76
2022/10/03 06:59:20;;;;;;;0.10;0.10;;;;;;;7.63;100.00;102655.97;5031668;28;20487;-75
2022/10/03 07:01:58;;;;;;;0.10;0.10;;;;;;;7.83;100.00;102668.63;5040545;28;20482;-76
2022/10/03 07:04:58;;;;;;;0.10;0.10;;;;;;;8.03;100.00;102678.59;5019892;28;20361;-76
2022/10/03 07:07:48;;;;;;;0.10;0.10;;;;;;;8.22;100.00;102684.09;5031225;28;20068;-76
2022/10/03 07:10:36;;;;;;;0.20;0.20;;;;;;;8.40;100.00;102681.66;5053411;28;20530;-76
2022/10/03 07:13:07;;;;;;;0.10;0.10;;;;;;;8.54;100.00;102679.31;5033755;28;21409;-75
2022/10/03 07:15:43;;;;;;;0.10;0.10;;;;;;;8.70;100.00;102684.06;5035112;28;20024;-75
2022/10/03 07:18:33;;;;;;;0.10;0.10;;;;;;;8.84;100.00;102689.72;5052770;28;20029;-77
2022/10/03 07:21:30;;;;;;;0.10;0.10;;;;;;;8.97;100.00;102686.56;5038267;28;20048;-76
2022/10/03 07:24:04;;;;;;;0.10;0.10;;;;;;;9.17;100.00;102684.84;5007257;28;20088;-76
2022/10/03 07:26:55;;;;;;;0.10;0.10;;;;;;;9.34;100.00;102682.31;5034223;28;20075;-76
2022/10/03 07:29:40;;;;;;;0.20;0.20;;;;;;;9.47;100.00;102682.66;5038093;28;20029;-76
2022/10/03 07:32:22;;;;;;;0.10;0.10;;;;;;;9.53;100.00;102687.75;5035366;28;20428;-76
2022/10/03 07:35:18;;;;;;;0.10;0.10;;;;;;;9.74;100.00;102685.94;5039226;28;20045;-76
2022/10/03 07:41:04;;;;;;;0.10;0.10;;;;;;;10.03;100.00;102693.59;5042736;28;20120;-77
2022/10/03 07:43:50;;;;;;;0.10;0.10;;;;;;;10.18;100.00;102697.38;5036542;28;20120;-76
2022/10/03 07:46:53;;;;;;;0.22;0.22;;;;;;;10.31;100.00;102693.19;5040039;28;20356;-77
2022/10/03 07:49:27;;;;;;;0.10;0.10;;;;;;;10.43;100.00;102709.69;5029820;28;20479;-76
2022/10/03 07:51:59;;;;;;;;;;;;;;;10.60;100.00;102707.03;5040364;28;20099;-78
2022/10/03 07:54:51;;;;;;;0.10;0.10;;;;;;;10.68;100.00;102692.38;5046108;28;19916;-78
2022/10/03 07:57:31;;;;;;;0.10;0.10;;;;;;;10.78;100.00;102691.84;5042895;28;20025;-78
2022/10/03 08:00:14;;;;;;;0.20;0.20;;;;;;;10.96;100.00;102721.47;5044236;28;20041;-84
2022/10/03 08:02:39;;;;;;;0.20;0.20;;;;;;;11.24;100.00;102720.09;5030783;28;20033;-78
2022/10/03 08:05:26;;;;;;;0.10;0.10;;;;;;;11.43;100.00;102725.38;5046488;28;20047;-78
2022/10/03 08:08:19;;;;;;;0.10;0.10;;;;;;;11.51;100.00;102727.69;5047018;28;20155;-80
2022/10/03 08:11:06;;;;;;;0.20;0.20;;;;;;;11.74;100.00;102718.41;5039365;28;20120;-78
2022/10/03 08:13:54;;;;;;;0.10;0.10;;;;;;;11.91;100.00;102727.41;5026149;28;20132;-79
2022/10/03 08:16:49;;;;;;;0.20;0.20;;;;;;;11.89;100.00;102721.25;5045602;28;20098;-78
2022/10/03 08:19:17;;;;;;;0.15;0.15;;;;;;;12.05;100.00;102721.31;5045555;28;20037;-80
2022/10/03 08:21:52;;;;;;;0.20;0.20;;;;;;;12.44;100.00;102731.72;5043652;28;20032;-78
2022/10/03 08:24:23;;;;;;;0.20;0.20;;;;;;;12.82;100.00;102729.63;5039452;28;20029;-77
2022/10/03 08:26:48;;;;;;;0.10;0.10;;;;;;;13.12;100.00;102731.50;5045092;28;20045;-77
2022/10/03 08:29:17;;;;;;;0.10;0.10;;;;;;;13.29;100.00;102730.53;5034384;28;20029;-78
2022/10/03 08:32:11;;;;;;;0.20;0.20;;;;;;;13.46;100.00;102730.41;5041540;28;20258;-77
2022/10/03 08:35:05;;;;;;;0.10;0.10;;;;;;;13.49;100.00;102734.78;5020229;28;20465;-78
2022/10/03 08:38:03;;;;;;;0.10;0.10;;;;;;;13.42;100.00;102712.66;5023309;28;20033;-78
2022/10/03 08:40:52;;;;;;;0.10;0.10;;;;;;;13.65;100.00;102726.59;5040965;28;20463;-78
2022/10/03 08:43:39;;;;;;;0.10;0.10;;;;;;;13.81;100.00;102726.50;5057560;28;20040;-81
2022/10/03 08:46:20;;;;;;;0.10;0.10;;;;;;;13.94;100.00;102724.81;5044114;28;20052;-78
2022/10/03 08:49:09;;;;;;;0.10;0.10;;;;;;;13.80;100.00;102724.78;5043383;28;20025;-83
2022/10/03 08:51:55;;;;;;;0.05;0.05;;;;;;;13.91;100.00;102716.91;5042032;28;20048;-80
2022/10/03 08:55:03;;;;;;;0.10;0.10;;;;;;;14.17;100.00;102721.63;5029315;28;20123;-78
2022/10/03 08:57:49;;;;;;;0.10;0.10;;;;;;;14.44;98.91;102723.50;5044893;28;20025;-78
2022/10/03 09:00:20;;;;;;;0.10;0.10;;;;;;;14.41;96.17;102702.97;5041304;28;20028;-78
2022/10/03 09:03:30;;;;;;;0.10;0.10;;;;;;;14.36;94.17;102721.31;5047677;28;20041;-80
2022/10/03 09:06:10;;;;;;;0.08;0.08;;;;;;;14.42;94.88;102728.19;5007106;28;20037;-81
2022/10/03 09:09:03;;;;;;;0.17;0.17;;;;;;;14.51;95.13;102703.22;5034956;28;20541;-79
2022/10/03 09:12:07;;;;;;;0.10;0.10;;;;;;;14.76;98.18;102721.47;5041512;28;20025;-77
2022/10/03 09:14:51;;;;;;;0.10;0.10;;;;;;;14.58;94.85;102722.63;5025547;28;20079;-78
2022/10/03 09:17:51;;;;;;;0.10;0.10;;;;;;;14.49;96.27;102700.66;5035317;28;20409;-79
2022/10/03 09:21:11;;;;;;;0.10;0.10;;;;;;;14.74;94.68;102722.53;5039940;28;20395;-77
2022/10/03 09:24:01;;;;;;;0.10;0.10;;;;;;;14.70;94.11;102702.94;5001613;28;20550;-78
2022/10/03 09:26:51;;;;;;;0.10;0.10;;;;;;;15.07;93.72;102724.84;5043202;28;20036;-82
2022/10/03 09:29:22;;;;;;;0.00;0.00;;;;;;;15.43;92.23;102719.72;5040584;28;20123;-79
2022/10/03 09:32:13;;;;;;;0.10;0.10;;;;;;;15.52;92.94;102710.94;5037693;28;20029;-82
2022/10/03 09:34:57;;;;;;;0.10;0.10;;;;;;;15.71;89.73;102702.41;5039969;28;20528;-78
2022/10/03 09:37:49;;;;;;;0.10;0.10;;;;;;;15.73;88.24;102691.50;5035985;28;20029;-78
2022/10/03 09:41:09;;;;;;;0.10;0.10;;;;;;;15.98;85.93;102714.16;5022561;28;20032;-78
2022/10/03 09:43:58;;;;;;;0.10;0.10;;;;;;;15.92;85.39;102709.19;5001831;28;20133;-79
2022/10/03 09:49:58;;;;;;;;;;;;;;;15.74;83.76;102699.50;5033176;28;20048;-77
2022/10/03 09:52:33;;;;;;;0.10;0.10;;;;;;;16.04;84.43;102698.31;5032982;28;20665;-82
2022/10/03 09:55:17;;;;;;;0.10;0.10;;;;;;;16.62;85.29;102702.31;5033834;28;20401;-76
2022/10/03 09:58:07;;;;;;;0.00;0.00;;;;;;;16.53;83.26;102701.16;5033960;28;20166;-84
2022/10/03 10:00:38;;;;;;;0.10;0.10;;;;;;;16.15;83.00;102692.13;5029615;28;20033;-75
2022/10/03 10:03:26;;;;;;;0.10;0.10;;;;;;;16.23;83.54;102683.44;5040086;28;20467;-78
2022/10/03 10:06:06;;;;;;;0.10;0.10;;;;;;;16.60;83.01;102680.75;5015985;28;20578;-78
2022/10/03 10:09:05;;;;;;;0.05;0.05;;;;;;;16.91;82.58;102692.00;5027626;28;20025;-77
2022/10/03 10:11:36;;;;;;;0.10;0.10;;;;;;;16.76;81.17;102661.47;5018961;28;20028;-76
2022/10/03 10:14:23;;;;;;;0.03;0.03;;;;;;;17.24;77.09;102687.69;5031731;28;20387;-74
2022/10/03 10:17:06;;;;;;;0.10;0.10;;;;;;;16.65;78.81;102680.38;5033074;28;20036;-75
2022/10/03 10:19:55;;;;;;;0.10;0.10;;;;;;;17.14;78.71;102651.41;5031280;28;20024;-81
2022/10/03 10:22:58;;;;;;;0.00;0.00;;;;;;;17.76;74.26;102665.56;5014921;28;20051;-75
2022/10/03 10:25:45;;;;;;;0.00;0.00;;;;;;;17.96;69.03;102674.00;5034608;28;20074;-85
2022/10/03 10:28:20;;;;;;;0.00;0.00;;;;;;;17.89;70.07;102654.59;5037488;28;20031;-73
2022/10/03 10:31:01;;;;;;;0.00;0.00;;;;;;;18.51;70.19;102678.66;5027942;28;20135;-80
2022/10/03 10:34:18;;;;;;;0.00;0.00;;;;;;;18.93;70.04;102672.47;5029401;28;20731;-77
2022/10/03 10:37:22;;;;;;;0.10;0.10;;;;;;;19.20;63.97;102682.03;5015333;28;20136;-77
2022/10/03 10:40:04;;;;;;;0.10;0.10;;;;;;;19.71;61.65;102677.63;5019165;28;20021;-78
2022/10/03 10:43:02;;;;;;;0.00;0.00;;;;;;;19.96;57.79;102687.25;5019094;28;20033;-78
2022/10/03 10:45:47;;;;;;;0.00;0.00;;;;;;;20.20;60.88;102686.91;5038273;28;20076;-80
2022/10/03 10:48:31;;;;;;;0.00;0.00;;;;;;;20.24;55.86;102687.50;5024770;28;20074;-78
2022/10/03 10:51:05;;;;;;;;;;;;;;;20.01;57.03;102682.22;5035532;28;20025;-77
2022/10/03 10:54:16;;;;;;;0.00;0.00;;;;;;;19.82;59.11;102680.28;5039779;28;19916;-80
2022/10/03 10:57:01;;;;;;;0.10;0.10;;;;;;;19.77;61.97;102679.81;5017829;28;20056;-79
2022/10/03 10:59:41;;;;;;;0.00;0.00;;;;;;;19.64;62.41;102678.16;5040138;28;20148;-75
2022/10/03 11:02:26;;;;;;;0.00;0.00;;;;;;;19.24;61.76;102662.56;5023699;28;20087;-79
2022/10/03 11:05:31;;;;;;;0.03;0.03;;;;;;;19.24;61.80;102680.75;5035767;28;20389;-81
2022/10/03 11:08:17;;;;;;;0.20;0.00;;;;;;;19.17;65.26;102685.88;5037073;28;20025;-81
2022/10/03 11:11:21;;;;;;;0.00;0.00;;;;;;;19.03;64.13;102671.59;5037056;28;20021;-77
2022/10/03 11:14:14;;;;;;;0.00;0.00;;;;;;;19.21;62.39;102673.72;5039198;28;20179;-78
2022/10/03 11:17:01;;;;;;;0.00;0.00;;;;;;;19.41;59.57;102682.91;5040645;28;20514;-83
2022/10/03 11:19:40;;;;;;;0.00;0.00;;;;;;;19.96;61.85;102679.06;5054709;28;20799;-80
2022/10/03 11:22:56;;;;;;;0.00;0.00;;;;;;;19.79;58.19;102651.41;5025805;28;20037;-77
2022/10/03 11:25:43;;;;;;;0.00;0.00;;;;;;;19.87;59.89;102674.41;5041017;28;20035;-82
2022/10/03 11:28:36;;;;;;;0.00;0.00;;;;;;;19.66;58.48;102674.44;5039733;28;20033;-87
2022/10/03 11:31:24;;;;;;;0.00;0.00;;;;;;;19.82;60.60;102669.38;5042875;28;20048;-84
2022/10/03 11:34:11;;;;;;;0.00;0.00;;;;;;;19.74;55.02;102671.91;5043865;28;20025;-84
2022/10/03 11:37:08;;;;;;;0.00;0.00;;;;;;;19.57;57.83;102667.94;5044968;28;20029;-85
2022/10/03 11:39:56;;;;;;;0.00;0.00;;;;;;;19.39;58.63;102682.16;5038179;28;20446;-83
2022/10/03 11:42:42;;;;;;;0.00;0.00;;;;;;;19.38;59.65;102668.66;5038887;28;20036;-83
2022/10/03 11:45:19;;;;;;;0.00;0.00;;;;;;;19.43;59.74;102642.78;5042224;28;20037;-83
2022/10/03 11:48:02;;;;;;;0.00;0.00;;;;;;;19.67;60.09;102647.06;5041588;28;20036;-82
2022/10/03 11:50:32;;;;;;;0.00;0.00;;;;;;;19.99;58.53;102661.56;5042478;28;20025;-84
2022/10/03 11:53:15;;;;;;;0.00;0.00;;;;;;;20.40;57.60;102664.28;5043811;28;20440;-83
2022/10/03 11:55:52;;;;;;;0.10;0.10;;;;;;;20.89;56.35;102667.09;5044001;28;20032;-89
2022/10/03 11:58:43;;;;;;;0.00;0.00;;;;;;;20.92;55.14;102666.81;5039555;28;20037;-86
2022/10/03 12:01:31;;;;;;;0.00;0.00;;;;;;;20.52;55.49;102668.63;5043761;28;20025;-75
2022/10/03 12:04:26;;;;;;;0.00;0.00;;;;;;;20.40;56.41;102670.56;5045074;28;20053;-74
2022/10/03 12:10:37;;;;;;;0.00;0.00;;;;;;;20.97;55.41;102643.53;5042327;28;20175;-87
2022/10/03 12:13:08;;;;;;;0.00;0.00;;;;;;;21.77;54.95;102661.50;5040252;28;20029;-84
2022/10/03 12:15:47;;;;;;;0.00;0.00;;;;;;;22.33;51.73;102667.00;5040127;28;20120;-85
2022/10/03 12:18:33;;;;;;;0.00;0.00;;;;;;;22.42;51.30;102662.47;5056482;28;20048;-89
2022/10/03 12:21:10;;;;;;;0.00;0.00;;;;;;;21.16;49.85;102644.50;5036133;28;20033;-79
2022/10/03 12:24:13;;;;;;;0.00;0.00;;;;;;;21.34;53.52;102668.31;5040782;28;20045;-82
2022/10/03 12:27:02;;;;;;;0.00;0.00;;;;;;;21.93;51.93;102635.38;5043389;28;20028;-81
2022/10/03 12:29:31;;;;;;;0.00;0.00;;;;;;;20.89;51.96;102648.84;5034544;28;20054;-77
2022/10/03 12:32:15;;;;;;;0.00;0.00;;;;;;;20.49;55.00;102660.72;5033671;28;20043;-79
2022/10/03 12:35:23;;;;;;;0.00;0.00;;;;;;;20.28;55.16;102658.06;5036056;28;20032;-84
2022/10/03 12:37:52;;;;;;;0.00;0.00;;;;;;;20.35;56.87;102656.53;5031263;28;20127;-80
2022/10/03 12:40:23;;;;;;;0.00;0.00;;;;;;;20.07;56.16;102650.84;5034020;28;20021;-86
2022/10/03 12:43:05;;;;;;;0.00;0.00;;;;;;;19.92;53.65;102623.94;5038061;28;20044;-85
2022/10/03 12:45:44;;;;;;;0.00;0.00;;;;;;;20.32;55.59;102645.88;5024184;28;21892;-86
2022/10/03 12:48:41;;;;;;;0.00;0.00;;;;;;;20.67;52.51;102637.16;5024579;28;20032;-85
2022/10/03 12:51:20;;;;;;;0.00;0.00;;;;;;;20.88;53.94;102622.53;5040455;28;20037;-85
2022/10/03 12:53:49;;;;;;;0.00;0.00;;;;;;;20.90;54.58;102642.38;5042255;28;20040;-86
2022/10/03 12:56:46;;;;;;;0.05;0.05;;;;;;;20.43;53.72;102625.81;5043827;28;20584;-88
2022/10/03 12:59:32;;;;;;;0.00;0.00;;;;;;;20.28;54.24;102630.81;5008478;28;20087;-90
2022/10/03 13:02:24;;;;;;;0.00;0.00;;;;;;;20.12;54.89;102629.47;5042070;28;20029;-92
2022/10/03 13:05:14;;;;;;;0.00;0.00;;;;;;;19.45;54.62;102610.81;5042940;28;20069;-83